KERO2: Robert S. Kerr Lock & Dam & Reservoir (L&D 15)

Data processed at Thu Nov 09 2017 16:03


All information presented herein is the property of the government of the United States of America and may be revised or deleted at any time without prior notice.
Dissemination of this information without the expressed written consent of the Public Affairs Office, Tulsa District U.S. Army Corps of Engineers is strictly prohibited.
These data are gathered electronically and, as presented, have not undergone any form of quality control. These data are not guaranteed to be valid or correct.
Go to home page.
Go to station list.

Upstream stations:

Downstream station:
Previous Day
Next Day
Current Day
    
SHEF ID:       KERO2     Robert S. Kerr Lock & Dam
STATION TYPE:  NAVIGATION LOCK
Normal Pool:  Bottom =   458.00, Top =   460.00

               PRECIP ELEVATION   STORAGE   TW-ELEV    INFLOW   RELEASE  AIR-TEMP  WIND-DIRWIND-SPEED REL-HUMID SOLAR-RAD   VOLTAGE  BAT-LOAD
                   in        ft     ac-ft        ft       cfs       cfs         F       deg       mph         %      W/m2      volt      volt
              Ccp-Rev   Ccp-Rev   Ccp-Rev   Ccp-Rev  Regi-Rev  Regi-Rev   Ccp-Rev   Ccp-Rev   Ccp-Rev   Ccp-Rev   Ccp-Rev   Ccp-Rev   Ccp-Rev
(US/Central)
11/08 00:00      0.00    459.52    505002    412.27      1133         0     48.34    357.90      4.02      0.98      0.00     13.86     13.48
11/08 01:00      0.00    459.55    506295    412.23      1088         0     47.48      2.20      4.05      0.55      0.00     13.85     13.36
11/08 02:00      0.00    459.53    505433    412.29      1043         0     46.92      6.00      4.59      0.49      0.00     13.86     13.36
11/08 03:00      0.00    459.53    505433    412.14      3129         0     47.80    353.70      2.85      0.49      0.00     13.86     13.36
11/08 04:00      0.00    459.53    505433    412.24      4327         0     48.02      7.90      3.59      0.49      0.00     13.86     13.36
11/08 05:00      0.00    459.55    506295    412.16      5525         0     47.91      2.50      3.66    100.43      0.00     13.88     13.36
11/08 06:00      0.00    459.37    498537    413.11      7245         0     48.13      6.30      4.16    100.37      0.00     13.88     13.42
11/08 07:00      0.00    459.45    501985    414.61      8019     31150     47.70    356.60      4.11      0.55      1.00     13.86     13.42
11/08 08:00      0.00    459.48    503278    414.66      7750     31150     47.80    319.20      4.65      0.55     40.00     13.88     13.36
11/08 09:00      0.00    459.46    502416    413.16      6804     14300     48.90    352.90      4.56      0.55    110.00     13.85     13.42
11/08 10:00      0.00    459.45    501985    412.85      9956     14300     49.14      7.00      5.50      0.55    154.00     13.84     13.36
11/08 11:00      0.00    459.43    501123    412.30      8236     14300     49.46    346.20      5.03      0.49    141.00     13.85     13.36
11/08 12:00      0.00    459.45    501985    412.62      7462     14300     50.90    336.40      4.54      0.92    194.00     13.83     13.48
11/08 13:00      0.00    459.46    502416    412.48      5645     14300     51.67    359.70      3.30      0.43    241.00     13.83     13.36
11/08 14:00      0.00    459.47    502847    412.36      4871     14300     52.66      5.70      4.31      0.37    214.00     13.83     13.36
11/08 15:00      0.00    459.48    503278    412.83     11283     14300     53.65     25.40      4.08      0.49    114.00     13.83     13.36
11/08 16:00      0.00    459.32    496382    412.34     17383     14300     53.76     22.90      4.25      0.49    130.00     13.82     13.36
11/08 17:00      0.00    459.42    500692    412.80     28698     14300     53.33     39.50      2.69      0.67     61.00     13.83     13.36
11/08 18:00      0.00    459.42    500692    413.95     29472     30500     52.45     67.20      1.20      0.73      4.00     13.83     13.36
11/08 19:00      0.00    459.47    502847    414.01     34944     30500     48.27    300.30      0.22    100.27      0.00     13.83     13.30
11/08 20:00      0.00    459.45    501985    412.32     29919     14300     45.61    319.60      0.23     99.34      0.00     13.84     13.36
11/08 21:00      0.00    459.49    503709    412.21     25905      6500     44.74      9.50      0.46    100.39      0.00     13.84     13.36
11/08 22:00      0.00    459.55    506295    411.64     18762         0     44.96    290.00      0.67    100.32      0.00     13.86     13.36
11/08 23:00      0.00    459.57    507157    412.28     19894         0     45.95    277.10      2.33    100.33      0.00     13.84     13.42